Flight Track Log - Related Links

Times and Time Zones

All times are in EDT time to prevent confusion due to time zone crossing. See the UAL256 flight status page for this flight to view local times or setup timezone preferences in your user account.

Time Position Orientation Groundspeed Altitude Reporting Facility
EDT Latitude Longitude Course Direction KTS MPH feet Rate Location/Type
Sat 05:43:27 PM 37.6500 -122.3333 72° East 186 214 1,800  Level Northern Cal TRACON
Sat 05:44:27 PM 37.7000 -122.2667 47° Northeast 245 282 4,000 2,000 Climbing Northern Cal TRACON
Sat 05:44:42 PM 37.7050 -122.2544 63° Northeast 235 270 4,300 2,684 Climbing Oakland Center
Sat 05:45:00 PM 37.6459 -122.4490 119° Southeast  Level FlightAware Approximate
Sat 05:45:43 PM 37.7392 -122.1653 64° Northeast 286 329 7,400  Level Oakland Center
Sat 05:46:00 PM 37.6341 -122.3135 72° East  Level FlightAware Approximate
Sat 05:46:44 PM 37.7689 -122.0686 69° East 295 339 10,300  Level Oakland Center
Sat 05:47:00 PM 37.6716 -122.1719 62° Northeast  Level FlightAware Approximate
Sat 05:47:46 PM 37.8014 -121.9578 70° East 335 386 11,400  Level Oakland Center
Sat 05:48:00 PM 37.7238 -122.0381 72° East  Level FlightAware Approximate
Sat 05:48:47 PM 37.8378 -121.8311 70° East 383 441 13,800  Level Oakland Center
Sat 05:49:48 PM 37.8753 -121.7019 70° East 391 450 15,900 1,820 Climbing Oakland Center
Sat 05:50:49 PM 37.9228 -121.5369 70° East 416 479 17,500 1,512 Climbing Oakland Center
Sat 05:51:51 PM 37.9639 -121.3956 70° East 442 509 19,000 1,561 Climbing Oakland Center
Sat 05:52:52 PM 38.0056 -121.2472 70° East 450 518 20,700 1,574 Climbing Oakland Center
Sat 05:53:53 PM 38.0478 -121.0956 70° East 456 525 22,200 1,377 Climbing Oakland Center
Sat 05:54:54 PM 38.0833 -120.9378 74° East 470 541 23,500 1,230 Climbing Oakland Center
Sat 05:55:55 PM 38.1058 -120.7747 80° East 473 544 24,700 976 Climbing Oakland Center
Sat 05:56:57 PM 38.1283 -120.6089 80° East 478 550 25,500 1,024 Climbing Oakland Center
Sat 05:57:58 PM 38.1556 -120.4064 80° East 486 559 26,800 1,230 Climbing Oakland Center
Sat 05:58:59 PM 38.1764 -120.2397 81° East 482 555 28,000 1,328 Climbing Oakland Center
Sat 06:00:00 PM 38.2000 -120.0747 80° East 477 549 29,500 1,279 Climbing Oakland Center
Sat 06:01:01 PM 38.2200 -119.9114 81° East 470 541 30,600 1,073 Climbing Oakland Center
Sat 06:02:03 PM 38.2406 -119.7489 81° East 467 537 31,700 1,073 Climbing Oakland Center
Sat 06:03:04 PM 38.2600 -119.5869 81° East 465 535 32,800 1,082 Climbing Oakland Center
Sat 06:04:05 PM 38.2781 -119.4322 81° East 463 533 33,900 1,033 Climbing Oakland Center
Sat 06:05:06 PM 38.3022 -119.2411 81° East 461 531 34,900 541 Climbing Oakland Center
Sat 06:06:07 PM 38.3164 -119.0808 84° East 458 527 35,000 49 Climbing Oakland Center
Sat 06:07:09 PM 38.3206 -118.9200 88° East 457 526 35,000  Level Oakland Center
Sat 06:08:10 PM 38.3267 -118.7578 87° East 461 531 35,000  Level Oakland Center
Sat 06:09:11 PM 38.3308 -118.5989 88° East 453 521 35,000  Level Oakland Center
Sat 06:10:12 PM 38.3364 -118.4375 87° East 456 525 35,000  Level Oakland Center
Sat 06:11:13 PM 38.3397 -118.2761 88° East 458 527 35,000 390 Level Oakland Center
Sat 06:12:15 PM 38.3442 -118.0914 88° East 456 525 35,800 732 Climbing Oakland Center
Sat 06:13:16 PM 38.3483 -117.9314 88° East 451 519 36,500 590 Climbing Oakland Center
Sat 06:14:17 PM 38.3519 -117.7728 88° East 448 516 37,000 246 Climbing Oakland Center
Sat 06:15:18 PM 38.3547 -117.6142 89° East 447 514 37,000  Level Oakland Center
Sat 06:16:19 PM 38.3586 -117.4553 88° East 446 513 37,000  Level Oakland Center
Sat 06:17:06 PM 38.3608 -117.3256 89° East 449 517 37,000  Level Salt Lake Center
Sat 06:17:21 PM 38.3611 -117.2953 89° East 447 514 37,000  Level Oakland Center
Sat 06:18:22 PM 38.3642 -117.1317 89° East 452 520 37,000  Level Oakland Center
Sat 06:19:08 PM 38.3661 -117.0033 89° East 447 514 37,000  Level Salt Lake Center
Sat 06:20:24 PM 38.3681 -116.8158 89° East 440 506 37,000  Level Oakland Center
Sat 06:21:25 PM 38.3708 -116.6589 89° East 440 506 37,000  Level Oakland Center
Sat 06:22:26 PM 38.3722 -116.5042 89° East 437 503 37,000  Level Oakland Center
Sat 06:23:28 PM 38.3742 -116.3478 89° East 440 506 37,000  Level Oakland Center
Sat 06:24:14 PM 38.3750 -116.2222 89° East 442 509 37,000  Level Salt Lake Center
Sat 06:24:29 PM 38.3750 -116.1917 90° East 441 507 37,000  Level Oakland Center
Sat 06:25:15 PM 38.3758 -116.0658 89° East 441 507 37,000  Level Salt Lake Center
Sat 06:26:16 PM 38.3775 -115.9106 89° East 439 505 37,000  Level Salt Lake Center
Sat 06:27:17 PM 38.3783 -115.7550 90° East 441 507 37,000  Level Salt Lake Center
Sat 06:28:18 PM 38.3789 -115.5994 90° East 438 504 37,000  Level Salt Lake Center
Sat 06:29:20 PM 38.3792 -115.4431 90° East 442 509 37,000  Level Salt Lake Center
Sat 06:30:21 PM 38.3803 -115.2594 90° East 445 512 37,000 -49 Level Salt Lake Center
Sat 06:31:22 PM 38.3808 -115.1033 90° East 443 510 36,900 -885 Descending Salt Lake Center
Sat 06:32:23 PM 38.3806 -114.9478 90° East 440 506 35,200 -1,721 Descending Salt Lake Center
Sat 06:33:24 PM 38.3794 -114.7911 90° East 442 509 33,400 -1,082 Descending Salt Lake Center
Sat 06:34:25 PM 38.3794 -114.6292 90° East 454 522 33,000 -197 Descending Salt Lake Center
Sat 06:35:26 PM 38.3781 -114.4678 91° East 456 525 33,000  Level Salt Lake Center
Sat 06:36:27 PM 38.3775 -114.3069 90° East 455 524 33,000  Level Salt Lake Center
Sat 06:37:28 PM 38.3769 -114.1461 90° East 454 522 33,000  Level Salt Lake Center
Sat 06:38:29 PM 38.3747 -113.9844 91° East 455 524 33,000  Level Salt Lake Center
Sat 06:39:31 PM 38.3728 -113.8231 91° East 455 524 33,000  Level Salt Lake Center
Sat 06:40:32 PM 38.3714 -113.6619 91° East 454 522 33,000  Level Salt Lake Center
Sat 06:41:33 PM 38.3681 -113.4686 91° East 455 524 33,000  Level Salt Lake Center
Sat 06:42:34 PM 38.3653 -113.3078 91° East 453 521 33,000  Level Salt Lake Center
Sat 06:43:35 PM 38.3636 -113.1450 91° East 457 526 33,000  Level Salt Lake Center
Sat 06:44:36 PM 38.3608 -112.9825 91° East 458 527 33,000  Level Salt Lake Center
Sat 06:45:37 PM 38.3681 -112.8203 87° East 455 524 33,000  Level Salt Lake Center
Sat 06:46:38 PM 38.3728 -112.6592 88° East 455 524 33,000  Level Salt Lake Center
Sat 06:47:39 PM 38.3778 -112.4983 88° East 454 522 33,000  Level Salt Lake Center
Sat 06:48:40 PM 38.3825 -112.3378 88° East 453 521 33,000  Level Salt Lake Center
Sat 06:49:41 PM 38.3869 -112.1764 88° East 453 521 33,000  Level Salt Lake Center
Sat 06:50:43 PM 38.3917 -112.0156 88° East 453 521 33,000  Level Salt Lake Center
Sat 06:51:44 PM 38.3956 -111.8550 88° East 454 522 33,000  Level Salt Lake Center
Sat 06:52:45 PM 38.4003 -111.6944 88° East 453 521 33,000  Level Salt Lake Center
Sat 06:53:46 PM 38.4033 -111.5333 89° East 455 524 33,000  Level Salt Lake Center
Sat 06:54:47 PM 38.4069 -111.3731 88° East 453 521 33,000  Level Salt Lake Center
Sat 06:55:48 PM 38.4103 -111.1800 89° East 454 522 33,000  Level Salt Lake Center
Sat 06:56:49 PM 38.4131 -111.0208 89° East 451 519 33,000  Level Salt Lake Center
Sat 06:57:50 PM 38.4144 -110.8547 89° East 456 525 33,000  Level Salt Lake Center
Sat 06:58:51 PM 38.4181 -110.7028 88° East 452 520 33,000  Level Salt Lake Center
Sat 06:59:56 PM 38.4211 -110.5231 89° East 452 520 33,000  Level Denver Center
Sat 07:00:58 PM 38.4244 -110.3694 88° East 453 521 33,000  Level Denver Center
Sat 07:01:59 PM 38.4269 -110.1917 89° East 452 520 33,000  Level Denver Center
Sat 07:03:01 PM 38.4303 -110.0403 88° East 448 516 33,000  Level Denver Center
Sat 07:04:02 PM 38.4331 -109.8883 89° East 450 518 33,000  Level Denver Center
Sat 07:05:04 PM 38.4358 -109.7361 89° East 448 516 33,000  Level Denver Center
Sat 07:06:06 PM 38.4381 -109.5600 89° East 446 513 33,000  Level Denver Center
Sat 07:07:07 PM 38.4408 -109.3850 89° East 444 511 33,000  Level Denver Center
Sat 07:08:09 PM 38.4431 -109.2322 89° East 447 514 33,000  Level Denver Center
Sat 07:09:10 PM 38.4453 -109.0561 89° East 446 513 33,000  Level Denver Center
Sat 07:10:12 PM 38.4464 -108.9056 89° East 445 512 33,000  Level Denver Center
Sat 07:11:13 PM 38.4475 -108.7544 89° East 445 512 33,000  Level Denver Center
Sat 07:12:27 PM 38.4494 -108.5786 89° East 446 513 33,000  Level Denver Center
Sat 07:13:29 PM 38.4500 -108.3772 90° East 446 513 33,000  Level Denver Center
Sat 07:14:30 PM 38.4511 -108.2219 89° East 455 524 33,000  Level Denver Center
Sat 07:15:32 PM 38.4678 -108.0736 82° East 447 514 33,000  Level Denver Center
Sat 07:16:33 PM 38.5267 -107.9133 65° Northeast 447 514 33,000  Level Denver Center
Sat 07:17:35 PM 38.5769 -107.7778 65° Northeast 443 510 33,000  Level Denver Center
Sat 07:18:36 PM 38.6356 -107.6181 65° Northeast 445 512 33,000  Level Denver Center
Sat 07:19:50 PM 38.6853 -107.4825 65° Northeast 442 509 33,000  Level Denver Center
Sat 07:20:51 PM 38.7525 -107.3000 65° Northeast 444 511 33,000  Level Denver Center
Sat 07:21:53 PM 38.8039 -107.1589 65° Northeast 443 510 33,000  Level Denver Center
Sat 07:22:54 PM 38.8558 -107.0158 65° Northeast 443 510 33,000  Level Denver Center
Sat 07:23:56 PM 38.9092 -106.8681 65° Northeast 440 506 33,000  Level Denver Center
Sat 07:24:58 PM 38.9653 -106.7089 66° East 439 505 33,000 -341 Level Denver Center
Sat 07:25:59 PM 39.0150 -106.5717 65° Northeast 443 510 32,300 -829 Descending Denver Center
Sat 07:27:01 PM 39.0628 -106.4347 66° East 441 507 31,300 -1,024 Descending Denver Center
Sat 07:28:02 PM 39.1208 -106.2722 65° Northeast 447 514 30,200 -1,463 Descending Denver Center
Sat 07:29:04 PM 39.1736 -106.1206 66° East 456 525 28,300 -2,780 Descending Denver Center
Sat 07:30:05 PM 39.2261 -105.9683 66° East 459 528 24,500 -2,341 Descending Denver Center
Sat 07:31:07 PM 39.2817 -105.8103 66° East 479 551 23,500 -1,122 Descending Denver Center
Sat 07:32:08 PM 39.3322 -105.6622 66° East 445 512 22,200 -1,707 Descending Denver Center
Sat 07:33:10 PM 39.3756 -105.5383 66° East 379 436 20,000 -2,146 Descending Denver Center
Sat 07:34:11 PM 39.3989 -105.4033 77° East 348 400 17,800 -1,805 Descending Denver Center
Sat 07:35:13 PM 39.4047 -105.2833 86° East 334 384 16,300 -1,561 Descending Denver Center
Sat 07:36:14 PM 39.4100 -105.1656 87° East 331 381 14,600 -1,268 Descending Denver Center
Sat 07:37:16 PM 39.4147 -105.0417 87° East 326 375 13,700 -780 Descending Denver Center
Sat 07:38:17 PM 39.4197 -104.9417 86° East 286 329 13,000 -341 Descending Denver Center
Sat 07:39:19 PM 39.4278 -104.8481 84° East 267 307 13,000 -488 Level Denver Center
Sat 07:40:20 PM 39.4500 -104.7589 72° East 252 290 12,000 -927 Descending Denver Center
Sat 07:41:22 PM 39.5114 -104.7261 22° Northeast 236 272 11,100 -878 Descending Denver Center
Sat 07:42:23 PM 39.5708 -104.6967 21° North 229 264 10,200 -927 Descending Denver Center
Sat 07:43:25 PM 39.6294 -104.6683 20° North 211 243 9,200 -1,024 Descending Denver Center
Sat 07:44:26 PM 39.6864 -104.6625 North 207 238 8,100 -934 Descending Denver Center
Sat 07:45:27 PM 39.7306 -104.6617 North 166 191 7,300 -787 Descending Denver Center

Login

Don't have an account? Register now (free) for customized features, flight alerts, and more!